createdAt,value
2023-01-09T00:00:15.836Z,7.33
2023-01-09T00:01:15.764Z,7.31
2023-01-09T00:02:15.838Z,7.31
2023-01-09T00:03:15.758Z,7.33
2023-01-09T00:04:16.005Z,7.31
2023-01-09T00:05:15.710Z,7.31
2023-01-09T00:06:15.715Z,7.31
2023-01-09T00:07:15.685Z,7.29
2023-01-09T00:08:15.799Z,7.29
2023-01-09T00:09:15.683Z,7.28
2023-01-09T00:10:15.683Z,7.33
2023-01-09T00:11:15.656Z,7.34
2023-01-09T00:12:15.640Z,7.36
2023-01-09T00:13:15.828Z,7.36
2023-01-09T00:14:15.643Z,7.37
2023-01-09T00:15:15.876Z,7.37
2023-01-09T00:16:15.619Z,7.40
2023-01-09T00:17:15.588Z,7.42
2023-01-09T00:18:15.586Z,7.42
2023-01-09T00:19:15.564Z,7.40
2023-01-09T00:20:15.582Z,7.42
2023-01-09T00:21:15.608Z,7.42
2023-01-09T00:22:15.596Z,7.40
2023-01-09T00:23:15.566Z,7.43
2023-01-09T00:24:15.516Z,7.42
2023-01-09T00:25:15.546Z,7.40
2023-01-09T00:26:15.718Z,7.40
2023-01-09T00:27:15.564Z,7.42
2023-01-09T00:28:15.524Z,7.42
2023-01-09T00:29:15.451Z,7.43
2023-01-09T00:30:15.480Z,7.42
2023-01-09T00:31:15.465Z,7.42
2023-01-09T00:32:15.435Z,7.44
2023-01-09T00:33:15.415Z,7.46
2023-01-09T00:34:15.425Z,7.47
2023-01-09T00:35:15.487Z,7.49
2023-01-09T00:36:15.400Z,7.49
2023-01-09T00:37:15.540Z,7.49
2023-01-09T00:39:27.104Z,7.49
2023-01-09T00:40:28.108Z,7.47
2023-01-09T00:41:28.119Z,7.43
2023-01-09T00:42:28.164Z,7.44
2023-01-09T00:43:28.140Z,7.46
2023-01-09T00:44:28.114Z,7.46
2023-01-09T00:45:27.981Z,7.44
2023-01-09T00:46:27.965Z,7.44
2023-01-09T00:47:27.992Z,7.49
2023-01-09T00:48:27.941Z,7.49
2023-01-09T00:49:27.939Z,7.52
2023-01-09T00:50:27.938Z,7.52
2023-01-09T00:51:27.903Z,7.52
2023-01-09T00:52:35.862Z,7.50
2023-01-09T00:53:27.883Z,7.49
2023-01-09T00:54:27.889Z,7.50
2023-01-09T00:55:27.864Z,7.50
2023-01-09T00:56:27.912Z,7.44
2023-01-09T00:57:27.834Z,7.43
2023-01-09T00:58:27.872Z,7.43
2023-01-09T00:59:27.826Z,7.40
2023-01-09T01:00:27.814Z,7.40
2023-01-09T01:01:27.984Z,7.37
2023-01-09T01:02:27.916Z,7.36
2023-01-09T01:03:28.107Z,7.34
2023-01-09T01:04:27.899Z,7.34
2023-01-09T01:05:27.992Z,7.31
2023-01-09T01:06:27.754Z,7.28
2023-01-09T01:07:27.732Z,7.29
2023-01-09T01:08:27.751Z,7.25
2023-01-09T01:09:27.711Z,7.25
2023-01-09T01:10:27.724Z,7.21
2023-01-09T01:11:27.731Z,7.21
2023-01-09T01:12:27.690Z,7.19
2023-01-09T01:13:35.346Z,7.18
2023-01-09T01:14:28.121Z,7.18
2023-01-09T01:15:27.645Z,7.16
2023-01-09T01:16:27.769Z,7.18
2023-01-09T01:17:27.681Z,7.13
2023-01-09T01:18:27.702Z,7.11
2023-01-09T01:19:27.632Z,7.13
2023-01-09T01:20:27.601Z,7.10
2023-01-09T01:21:34.109Z,7.08
2023-01-09T01:22:27.582Z,7.07
2023-01-09T01:23:27.601Z,7.11
2023-01-09T01:24:27.562Z,7.08
2023-01-09T01:25:27.557Z,7.08
2023-01-09T01:26:27.552Z,7.10
2023-01-09T01:27:27.519Z,7.10
2023-01-09T01:28:27.526Z,7.10
2023-01-09T01:29:27.508Z,7.10
2023-01-09T01:30:27.591Z,7.11
2023-01-09T01:31:27.504Z,7.13
2023-01-09T01:32:27.478Z,7.10
2023-01-09T01:33:27.555Z,7.11
2023-01-09T01:34:27.513Z,7.08
2023-01-09T01:35:27.449Z,7.10
2023-01-09T01:36:27.446Z,7.07
2023-01-09T01:37:27.412Z,7.07
2023-01-09T01:38:27.416Z,7.07
2023-01-09T01:39:27.449Z,7.07
2023-01-09T01:40:27.398Z,7.08
2023-01-09T01:41:27.372Z,7.07
2023-01-09T01:42:27.374Z,7.07
2023-01-09T01:43:27.377Z,7.06
2023-01-09T01:44:27.375Z,7.06
2023-01-09T01:45:27.322Z,7.04
2023-01-09T01:46:27.343Z,7.07
2023-01-09T01:47:27.316Z,7.07
2023-01-09T01:48:27.310Z,7.07
2023-01-09T01:49:27.295Z,7.08
2023-01-09T01:50:27.299Z,7.07
2023-01-09T01:51:27.272Z,7.08
2023-01-09T01:52:27.336Z,7.07
2023-01-09T01:54:45.897Z,7.10
2023-01-09T01:55:46.767Z,7.07
2023-01-09T01:56:46.586Z,7.10
2023-01-09T01:57:46.494Z,7.07
2023-01-09T01:58:52.995Z,7.08
2023-01-09T01:59:46.471Z,7.08
2023-01-09T02:00:46.515Z,7.07
2023-01-09T02:01:46.526Z,7.04
2023-01-09T02:02:46.491Z,7.06
2023-01-09T02:03:46.455Z,7.07
2023-01-09T02:04:46.444Z,7.07
2023-01-09T02:05:46.414Z,7.06
2023-01-09T02:06:46.401Z,7.03
2023-01-09T02:07:46.414Z,7.04
2023-01-09T02:08:46.398Z,7.01
2023-01-09T02:09:46.381Z,7.00
2023-01-09T02:10:46.387Z,7.03
2023-01-09T02:11:46.357Z,7.00
2023-01-09T02:12:46.382Z,7.00
2023-01-09T02:13:46.350Z,6.99
2023-01-09T02:14:46.350Z,6.97
2023-01-09T02:15:46.350Z,6.96
2023-01-09T02:16:46.281Z,6.97
2023-01-09T02:17:46.320Z,6.96
2023-01-09T02:18:46.307Z,6.96
2023-01-09T02:19:46.266Z,6.93
2023-01-09T02:20:46.254Z,6.91
2023-01-09T02:21:46.248Z,6.91
2023-01-09T02:22:46.250Z,6.89
2023-01-09T02:23:46.260Z,6.86
2023-01-09T02:24:46.249Z,6.83
2023-01-09T02:25:46.256Z,6.81
2023-01-09T02:26:46.266Z,6.79
2023-01-09T02:27:46.187Z,6.78
2023-01-09T02:28:46.206Z,6.75
2023-01-09T02:29:46.199Z,6.75
2023-01-09T02:30:46.156Z,6.73
2023-01-09T02:31:46.219Z,6.73
2023-01-09T02:34:03.075Z,6.70
2023-01-09T02:35:03.919Z,6.71
2023-01-09T02:36:03.954Z,6.68
2023-01-09T02:37:04.148Z,6.70
2023-01-09T02:38:03.880Z,6.67
2023-01-09T02:39:03.884Z,6.67
2023-01-09T02:40:03.919Z,6.67
2023-01-09T02:41:03.846Z,6.67
2023-01-09T02:42:03.873Z,6.68
2023-01-09T02:43:03.863Z,6.68
2023-01-09T02:44:03.807Z,6.67
2023-01-09T02:45:03.838Z,6.67
2023-01-09T02:46:03.884Z,6.68
2023-01-09T02:47:03.796Z,6.68
2023-01-09T02:48:03.804Z,6.68
2023-01-09T02:49:03.772Z,6.70
2023-01-09T02:50:03.752Z,6.68
2023-01-09T02:51:03.751Z,6.65
2023-01-09T02:52:03.734Z,6.64
2023-01-09T02:53:03.761Z,6.64
2023-01-09T02:54:03.715Z,6.61
2023-01-09T02:55:03.762Z,6.63
2023-01-09T02:56:03.688Z,6.61
2023-01-09T02:57:03.684Z,6.60
2023-01-09T02:58:03.693Z,6.56
2023-01-09T02:59:03.833Z,6.55
2023-01-09T03:00:03.697Z,6.56
2023-01-09T03:01:03.792Z,6.56
2023-01-09T03:02:03.786Z,6.55
2023-01-09T03:03:03.778Z,6.56
2023-01-09T03:04:03.635Z,6.53
2023-01-09T03:05:03.597Z,6.50
2023-01-09T03:06:03.592Z,6.50
2023-01-09T03:07:03.597Z,6.47
2023-01-09T03:08:04.309Z,6.47
2023-01-09T03:09:03.595Z,6.46
2023-01-09T03:10:03.547Z,6.45
2023-01-09T03:11:03.538Z,6.43
2023-01-09T03:12:03.593Z,6.42
2023-01-09T03:13:03.536Z,6.42
2023-01-09T03:14:03.504Z,6.40
2023-01-09T03:15:03.495Z,6.40
2023-01-09T03:16:03.520Z,6.38
2023-01-09T03:17:03.477Z,6.37
2023-01-09T03:18:03.473Z,6.38
2023-01-09T03:19:03.465Z,6.38
2023-01-09T03:20:03.443Z,6.38
2023-01-09T03:21:03.446Z,6.38
2023-01-09T03:22:03.425Z,6.42
2023-01-09T03:23:03.435Z,6.42
2023-01-09T03:24:03.391Z,6.38
2023-01-09T03:25:03.402Z,6.40
2023-01-09T03:26:03.379Z,6.37
2023-01-09T03:27:03.364Z,6.35
2023-01-09T03:28:03.355Z,6.34
2023-01-09T03:29:03.361Z,6.32
2023-01-09T03:30:03.316Z,6.32
2023-01-09T03:31:03.323Z,6.31
2023-01-09T03:32:03.311Z,6.30
2023-01-09T03:33:03.365Z,6.27
2023-01-09T03:34:03.311Z,6.25
2023-01-09T03:35:03.298Z,6.24
2023-01-09T03:36:03.262Z,6.25
2023-01-09T03:37:03.257Z,6.19
2023-01-09T03:38:03.251Z,6.19
2023-01-09T03:39:03.263Z,6.18
2023-01-09T03:40:03.228Z,6.16
2023-01-09T03:41:03.245Z,6.16
2023-01-09T03:42:03.206Z,6.16
2023-01-09T03:43:03.199Z,6.16
2023-01-09T03:44:03.203Z,6.16
2023-01-09T03:45:03.188Z,6.18
2023-01-09T03:46:03.186Z,6.15
2023-01-09T03:47:03.163Z,6.16
2023-01-09T03:48:03.139Z,6.18
2023-01-09T03:49:03.144Z,6.21
2023-01-09T03:50:03.107Z,6.19
2023-01-09T03:51:03.134Z,6.18
2023-01-09T03:52:03.113Z,6.18
2023-01-09T03:53:03.128Z,6.19
2023-01-09T03:54:03.084Z,6.21
2023-01-09T03:55:03.068Z,6.21
2023-01-09T03:56:03.052Z,6.21
2023-01-09T03:57:03.052Z,6.24
2023-01-09T03:58:03.024Z,6.25
2023-01-09T03:59:03.030Z,6.24
2023-01-09T04:00:03.279Z,6.19
2023-01-09T04:01:03.170Z,6.19
2023-01-09T04:02:04.112Z,6.18
2023-01-09T04:03:02.998Z,6.18
2023-01-09T04:04:03.118Z,6.18
2023-01-09T04:05:02.971Z,6.15
2023-01-09T04:06:03.127Z,6.15
2023-01-09T04:07:03.456Z,6.16
2023-01-09T04:08:02.956Z,6.15
2023-01-09T04:09:03.029Z,6.13
2023-01-09T04:10:03.137Z,6.16
2023-01-09T04:11:03.007Z,6.15
2023-01-09T04:12:03.149Z,6.15
2023-01-09T04:13:03.234Z,6.19
2023-01-09T04:14:02.845Z,6.21
2023-01-09T04:15:02.879Z,6.24
2023-01-09T04:16:02.945Z,6.21
2023-01-09T04:17:02.867Z,6.19
2023-01-09T04:18:02.863Z,6.19
2023-01-09T04:19:02.835Z,6.19
2023-01-09T04:20:02.837Z,6.21
2023-01-09T04:21:02.885Z,6.21
2023-01-09T04:22:02.797Z,6.21
2023-01-09T04:23:02.789Z,6.21
2023-01-09T04:24:02.812Z,6.21
2023-01-09T04:25:02.740Z,6.25
2023-01-09T04:26:02.778Z,6.24
2023-01-09T04:27:02.739Z,6.24
2023-01-09T04:28:02.727Z,6.25
2023-01-09T04:29:02.717Z,6.25
2023-01-09T04:30:02.694Z,6.24
2023-01-09T04:31:02.750Z,6.16
2023-01-09T04:32:02.709Z,6.18
2023-01-09T04:33:02.697Z,6.15
2023-01-09T04:34:02.647Z,6.11
2023-01-09T04:35:02.638Z,6.06
2023-01-09T04:36:02.642Z,6.03
2023-01-09T04:37:02.630Z,6.00
2023-01-09T04:38:02.597Z,5.95
2023-01-09T04:39:02.611Z,5.91
2023-01-09T04:40:02.585Z,5.87
2023-01-09T04:41:02.642Z,5.82
2023-01-09T04:42:02.566Z,5.80
2023-01-09T04:43:02.568Z,5.82
2023-01-09T04:44:02.534Z,5.79
2023-01-09T04:45:02.529Z,5.77
2023-01-09T04:46:02.545Z,5.75
2023-01-09T04:47:02.537Z,5.76
2023-01-09T04:48:02.563Z,5.77
2023-01-09T04:49:02.505Z,5.76
2023-01-09T04:50:02.481Z,5.76
2023-01-09T04:51:02.498Z,5.75
2023-01-09T04:52:02.457Z,5.73
2023-01-09T04:53:02.481Z,5.72
2023-01-09T04:54:02.490Z,5.72
2023-01-09T04:55:02.436Z,5.69
2023-01-09T04:56:02.411Z,5.69
2023-01-09T04:57:02.415Z,5.65
2023-01-09T04:58:02.491Z,5.59
2023-01-09T04:59:02.478Z,5.62
2023-01-09T05:00:02.417Z,5.62
2023-01-09T05:01:02.511Z,5.65
2023-01-09T05:02:02.515Z,5.65
2023-01-09T05:03:02.355Z,5.66
2023-01-09T05:04:02.410Z,5.69
2023-01-09T05:05:02.328Z,5.70
2023-01-09T05:06:02.407Z,5.72
2023-01-09T05:07:02.328Z,5.75
2023-01-09T05:08:02.360Z,5.77
2023-01-09T05:09:02.318Z,5.77
2023-01-09T05:10:02.286Z,5.79
2023-01-09T05:11:02.310Z,5.77
2023-01-09T05:12:02.257Z,5.77
2023-01-09T05:13:02.222Z,5.77
2023-01-09T05:14:02.286Z,5.77
2023-01-09T05:15:02.380Z,5.75
2023-01-09T05:16:02.215Z,5.76
2023-01-09T05:17:02.348Z,5.73
2023-01-09T05:18:02.172Z,5.75
2023-01-09T05:19:02.180Z,5.72
2023-01-09T05:20:02.221Z,5.70
2023-01-09T05:21:02.171Z,5.67
2023-01-09T05:22:02.126Z,5.66
2023-01-09T05:23:02.208Z,5.66
2023-01-09T05:24:02.159Z,5.69
2023-01-09T05:25:02.130Z,5.70
2023-01-09T05:26:02.160Z,5.70
2023-01-09T05:27:02.119Z,5.72
2023-01-09T05:28:02.137Z,5.72
2023-01-09T05:29:02.908Z,5.73
2023-01-09T05:30:02.097Z,5.76
2023-01-09T05:31:02.066Z,5.77
2023-01-09T05:32:02.024Z,5.79
2023-01-09T05:33:02.023Z,5.80
2023-01-09T05:34:02.000Z,5.80
2023-01-09T05:35:02.114Z,5.80
2023-01-09T05:36:02.044Z,5.84
2023-01-09T05:37:01.980Z,5.85
2023-01-09T05:38:01.995Z,5.84
2023-01-09T05:39:02.160Z,5.80
2023-01-09T05:40:02.052Z,5.82
2023-01-09T05:41:01.957Z,5.80
2023-01-09T05:42:01.951Z,5.80
2023-01-09T05:43:02.277Z,5.79
2023-01-09T05:44:01.948Z,5.77
2023-01-09T05:45:02.452Z,5.76
2023-01-09T05:46:01.977Z,5.72
2023-01-09T05:47:02.876Z,5.69
2023-01-09T05:48:02.049Z,5.67
2023-01-09T05:49:02.225Z,5.67
2023-01-09T05:50:01.862Z,5.62
2023-01-09T05:51:01.864Z,5.61
2023-01-09T05:52:01.818Z,5.59
2023-01-09T05:53:01.802Z,5.59
2023-01-09T05:54:01.790Z,5.58
2023-01-09T05:55:01.788Z,5.54
2023-01-09T05:56:01.784Z,5.54
2023-01-09T05:57:01.763Z,5.55
2023-01-09T05:58:01.761Z,5.55
2023-01-09T05:59:01.732Z,5.59
2023-01-09T06:00:01.772Z,5.58
2023-01-09T06:01:01.800Z,5.57
2023-01-09T06:02:01.762Z,5.57
2023-01-09T06:03:01.767Z,5.55
2023-01-09T06:04:01.688Z,5.52
2023-01-09T06:05:01.685Z,5.54
2023-01-09T06:06:01.691Z,5.57
2023-01-09T06:07:01.658Z,5.58
2023-01-09T06:08:01.639Z,5.57
2023-01-09T06:09:01.641Z,5.57
2023-01-09T06:10:01.731Z,5.57
2023-01-09T06:11:01.654Z,5.57
2023-01-09T06:12:01.644Z,5.52
2023-01-09T06:13:01.586Z,5.51
2023-01-09T06:14:01.693Z,5.48
2023-01-09T06:15:01.723Z,5.47
2023-01-09T06:16:01.694Z,5.44
2023-01-09T06:17:01.539Z,5.48
2023-01-09T06:18:03.829Z,5.47
2023-01-09T06:19:01.636Z,5.48
2023-01-09T06:20:01.786Z,5.50
2023-01-09T06:21:01.648Z,5.48
2023-01-09T06:22:01.717Z,5.51
2023-01-09T06:23:01.481Z,5.51
2023-01-09T06:24:01.575Z,5.52
2023-01-09T06:25:01.475Z,5.54
2023-01-09T06:26:01.515Z,5.55
2023-01-09T06:27:01.680Z,5.59
2023-01-09T06:28:01.428Z,5.59
2023-01-09T06:29:01.433Z,5.61
2023-01-09T06:30:01.692Z,5.62
2023-01-09T06:31:01.511Z,5.65
2023-01-09T06:32:01.530Z,5.65
2023-01-09T06:33:01.392Z,5.66
2023-01-09T06:34:01.489Z,5.67
2023-01-09T06:35:01.439Z,5.69
2023-01-09T06:36:01.372Z,5.69
2023-01-09T06:37:01.358Z,5.70
2023-01-09T06:38:01.382Z,5.70
2023-01-09T06:39:01.510Z,5.72
2023-01-09T06:40:03.219Z,5.70
2023-01-09T06:41:01.287Z,5.73
2023-01-09T06:42:01.648Z,5.72
2023-01-09T06:43:01.349Z,5.73
2023-01-09T06:44:01.276Z,5.72
2023-01-09T06:45:01.281Z,5.72
2023-01-09T06:46:08.367Z,5.73
2023-01-09T06:47:01.224Z,5.75
2023-01-09T06:48:01.271Z,5.76
2023-01-09T06:49:01.307Z,5.73
2023-01-09T06:50:01.262Z,5.76
2023-01-09T06:51:01.204Z,5.77
2023-01-09T06:52:01.208Z,5.82
2023-01-09T06:53:15.781Z,5.82
2023-01-09T06:54:01.238Z,5.85
2023-01-09T06:55:01.341Z,5.88
2023-01-09T06:56:01.186Z,5.88
2023-01-09T06:57:01.192Z,5.90
2023-01-09T06:58:03.768Z,5.88
2023-01-09T06:59:01.131Z,5.88
2023-01-09T07:00:01.273Z,5.88
2023-01-09T07:01:01.198Z,5.88
2023-01-09T07:02:01.182Z,5.88
2023-01-09T07:03:01.506Z,5.88
2023-01-09T07:04:01.950Z,5.90
2023-01-09T07:05:01.456Z,5.90
2023-01-09T07:06:02.718Z,5.91
2023-01-09T07:07:01.013Z,5.90
2023-01-09T07:08:01.003Z,5.90
2023-01-09T07:09:01.100Z,5.87
2023-01-09T07:10:01.080Z,5.85
2023-01-09T07:11:02.425Z,5.84
2023-01-09T07:12:01.332Z,5.84
2023-01-09T07:13:02.332Z,5.80
2023-01-09T07:14:01.111Z,5.80
2023-01-09T07:15:00.982Z,5.80
2023-01-09T07:16:00.970Z,5.82
2023-01-09T07:17:00.942Z,5.79
2023-01-09T07:18:00.960Z,5.84
2023-01-09T07:19:00.834Z,5.82
2023-01-09T07:20:00.822Z,5.84
2023-01-09T07:21:00.830Z,5.80
2023-01-09T07:22:01.558Z,5.79
2023-01-09T07:23:00.970Z,5.79
2023-01-09T07:24:01.662Z,5.80
2023-01-09T07:25:00.941Z,5.77
2023-01-09T07:26:00.778Z,5.77
2023-01-09T07:27:00.739Z,5.79
2023-01-09T07:28:00.736Z,5.79
2023-01-09T07:29:00.715Z,5.80
2023-01-09T07:30:00.720Z,5.77
2023-01-09T07:31:00.770Z,5.76
2023-01-09T07:32:00.715Z,5.75
2023-01-09T07:33:03.108Z,5.77
2023-01-09T07:34:00.682Z,5.77
2023-01-09T07:35:00.689Z,5.79
2023-01-09T07:36:00.674Z,5.80
2023-01-09T07:37:00.660Z,5.84
2023-01-09T07:38:00.670Z,5.80
2023-01-09T07:39:00.632Z,5.80
2023-01-09T07:40:00.687Z,5.80
2023-01-09T07:41:00.595Z,5.82
2023-01-09T07:42:00.605Z,5.79
2023-01-09T07:43:00.817Z,5.79
2023-01-09T07:44:00.582Z,5.79
2023-01-09T07:45:00.560Z,5.80
2023-01-09T07:46:00.910Z,5.79
2023-01-09T07:47:00.521Z,5.82
2023-01-09T07:48:00.551Z,5.79
2023-01-09T07:49:00.498Z,5.80
2023-01-09T07:50:00.540Z,5.82
2023-01-09T07:51:00.505Z,5.87
2023-01-09T07:52:00.513Z,5.85
2023-01-09T07:53:00.557Z,5.84
2023-01-09T07:54:00.460Z,5.85
2023-01-09T07:55:00.512Z,5.85
2023-01-09T07:56:00.494Z,5.87
2023-01-09T07:57:00.466Z,5.90
2023-01-09T07:58:00.581Z,5.91
2023-01-09T07:59:00.392Z,5.90
2023-01-09T08:00:00.397Z,5.90
2023-01-09T08:01:00.416Z,5.90
2023-01-09T08:02:00.401Z,5.93
2023-01-09T08:03:00.583Z,5.94
2023-01-09T08:04:00.362Z,5.94
2023-01-09T08:05:00.334Z,5.97
2023-01-09T08:06:00.350Z,5.98
2023-01-09T08:07:00.325Z,5.98
2023-01-09T08:08:00.331Z,5.98
2023-01-09T08:09:00.291Z,6.03
2023-01-09T08:10:00.292Z,6.05
2023-01-09T08:11:00.273Z,6.08
2023-01-09T08:12:00.370Z,6.11
2023-01-09T08:13:00.271Z,6.12
2023-01-09T08:14:00.241Z,6.12
2023-01-09T08:15:00.296Z,6.13
2023-01-09T08:16:00.273Z,6.16
2023-01-09T08:17:00.203Z,6.18
2023-01-09T08:18:00.632Z,6.18
2023-01-09T08:19:00.212Z,6.21
2023-01-09T08:20:00.203Z,6.24
2023-01-09T08:21:00.174Z,6.27
2023-01-09T08:22:00.769Z,6.27
2023-01-09T08:23:00.136Z,6.27
2023-01-09T08:24:00.150Z,6.30
2023-01-09T08:25:00.149Z,6.31
2023-01-09T08:26:00.122Z,6.31
2023-01-09T08:27:00.101Z,6.32
2023-01-09T08:28:00.124Z,6.34
2023-01-09T08:29:00.269Z,6.31
2023-01-09T08:30:00.174Z,6.31
2023-01-09T08:31:00.077Z,6.31
2023-01-09T08:32:00.334Z,6.32
2023-01-09T08:33:00.051Z,6.32
2023-01-09T08:34:00.117Z,6.35
2023-01-09T08:35:00.181Z,6.37
2023-01-09T08:36:00.079Z,6.38
2023-01-09T08:36:59.993Z,6.38
2023-01-09T08:38:00.012Z,6.38
2023-01-09T08:38:59.988Z,6.42
2023-01-09T08:39:59.997Z,6.45
2023-01-09T08:40:59.975Z,6.47
2023-01-09T08:41:59.934Z,6.52
2023-01-09T08:42:59.940Z,6.53
2023-01-09T08:43:59.939Z,6.57
2023-01-09T08:44:59.906Z,6.55
2023-01-09T08:46:00.252Z,6.56
2023-01-09T08:46:59.902Z,6.56
2023-01-09T08:47:59.917Z,6.55
2023-01-09T08:48:59.940Z,6.56
2023-01-09T08:50:00.151Z,6.56
2023-01-09T08:50:59.840Z,6.57
2023-01-09T08:51:59.832Z,6.60
2023-01-09T08:52:59.825Z,6.63
2023-01-09T08:53:59.837Z,6.61
2023-01-09T08:55:00.053Z,6.64
2023-01-09T08:55:59.897Z,6.63
2023-01-09T08:56:59.820Z,6.63
2023-01-09T08:57:59.788Z,6.63
2023-01-09T08:58:59.784Z,6.63
2023-01-09T08:59:59.763Z,6.60
2023-01-09T09:00:59.758Z,6.60
2023-01-09T09:01:59.840Z,6.60
2023-01-09T09:02:59.804Z,6.57
2023-01-09T09:03:59.717Z,6.56
2023-01-09T09:04:59.779Z,6.56
2023-01-09T09:05:59.689Z,6.56
2023-01-09T09:06:59.892Z,6.56
2023-01-09T09:07:59.664Z,6.53
2023-01-09T09:08:59.651Z,6.56
2023-01-09T09:09:59.644Z,6.55
2023-01-09T09:10:59.623Z,6.55
2023-01-09T09:11:59.640Z,6.53
2023-01-09T09:12:59.636Z,6.56
2023-01-09T09:13:59.603Z,6.53
2023-01-09T09:14:59.608Z,6.57
2023-01-09T09:15:59.618Z,6.57
2023-01-09T09:16:59.597Z,6.56
2023-01-09T09:18:01.269Z,6.55
2023-01-09T09:18:59.538Z,6.55
2023-01-09T09:19:59.592Z,6.53
2023-01-09T09:20:59.550Z,6.56
2023-01-09T09:21:59.519Z,6.52
2023-01-09T09:22:59.510Z,6.49
2023-01-09T09:23:59.516Z,6.50
2023-01-09T09:24:59.517Z,6.49
2023-01-09T09:26:02.129Z,6.49
2023-01-09T09:26:59.585Z,6.52
2023-01-09T09:27:59.520Z,6.50
2023-01-09T09:28:59.431Z,6.53
2023-01-09T09:29:59.434Z,6.56
2023-01-09T09:30:59.442Z,6.57
2023-01-09T09:32:00.881Z,6.57
2023-01-09T09:32:59.388Z,6.60
2023-01-09T09:33:59.401Z,6.61
2023-01-09T09:34:59.442Z,6.63
2023-01-09T09:35:59.371Z,6.65
2023-01-09T09:36:59.454Z,6.67
2023-01-09T09:37:59.376Z,6.73
2023-01-09T09:38:59.328Z,6.78
2023-01-09T09:40:01.518Z,6.81
2023-01-09T09:40:59.380Z,6.85
2023-01-09T09:41:59.371Z,6.85
2023-01-09T09:42:59.294Z,6.91
2023-01-09T09:43:59.296Z,6.96
2023-01-09T09:44:59.280Z,6.97
2023-01-09T09:45:59.322Z,6.99
2023-01-09T09:46:59.451Z,7.01
2023-01-09T09:47:59.240Z,7.03
2023-01-09T09:48:59.231Z,7.01
2023-01-09T09:49:59.224Z,7.01
2023-01-09T09:50:59.194Z,7.06
2023-01-09T09:51:59.197Z,7.03
2023-01-09T09:52:59.240Z,7.06
2023-01-09T09:53:59.176Z,7.04
2023-01-09T09:54:59.167Z,7.07
2023-01-09T09:55:59.551Z,7.11
2023-01-09T09:56:59.131Z,7.19
2023-01-09T09:57:59.127Z,7.22
2023-01-09T09:58:59.105Z,7.24
2023-01-09T09:59:59.106Z,7.21
2023-01-09T10:00:59.189Z,7.15
2023-01-09T10:01:59.492Z,7.15
2023-01-09T10:03:00.177Z,7.08
2023-01-09T10:03:59.124Z,7.07
2023-01-09T10:04:59.110Z,7.04
2023-01-09T10:05:59.038Z,7.03
2023-01-09T10:07:00.713Z,7.01
2023-01-09T10:08:03.511Z,7.00
2023-01-09T10:08:59.039Z,7.03
2023-01-09T10:09:59.004Z,7.06
2023-01-09T10:10:58.998Z,7.00
2023-01-09T10:11:58.982Z,6.97
2023-01-09T10:12:59.075Z,6.97
2023-01-09T10:13:58.981Z,6.96
2023-01-09T10:14:58.967Z,6.96
2023-01-09T10:15:59.042Z,6.91
2023-01-09T10:16:58.934Z,6.91
2023-01-09T10:17:59.357Z,6.89
2023-01-09T10:18:58.929Z,6.92
2023-01-09T10:19:59.113Z,6.91
2023-01-09T10:20:58.899Z,6.89
2023-01-09T10:21:58.893Z,6.91
2023-01-09T10:22:58.994Z,6.96
2023-01-09T10:23:58.917Z,6.99
2023-01-09T10:24:58.848Z,7.03
2023-01-09T10:25:58.845Z,7.10
2023-01-09T10:26:58.839Z,7.15
2023-01-09T10:27:58.887Z,7.19
2023-01-09T10:28:58.838Z,7.22
2023-01-09T10:29:58.782Z,7.25
2023-01-09T10:30:58.823Z,7.28
2023-01-09T10:31:58.760Z,7.29
2023-01-09T10:32:58.766Z,7.25
2023-01-09T10:33:58.738Z,7.24
2023-01-09T10:34:58.766Z,7.22
2023-01-09T10:35:58.757Z,7.19
2023-01-09T10:36:58.884Z,7.19
2023-01-09T10:37:58.747Z,7.22
2023-01-09T10:38:58.747Z,7.25
2023-01-09T10:39:58.699Z,7.26
2023-01-09T10:41:01.738Z,7.26
2023-01-09T10:41:58.741Z,7.29
2023-01-09T10:42:58.683Z,7.31
2023-01-09T10:43:58.624Z,7.33
2023-01-09T10:44:58.773Z,7.33
2023-01-09T10:45:58.679Z,7.29
2023-01-09T10:46:58.674Z,7.28
2023-01-09T10:47:58.616Z,7.29
2023-01-09T10:48:58.596Z,7.28
2023-01-09T10:49:58.576Z,7.22
2023-01-09T10:50:58.571Z,7.21
2023-01-09T10:51:58.588Z,7.16
2023-01-09T10:52:58.591Z,7.16
2023-01-09T10:53:58.531Z,7.08
2023-01-09T10:54:58.588Z,7.06
2023-01-09T10:55:58.551Z,7.03
2023-01-09T10:56:58.610Z,7.04
2023-01-09T10:57:58.489Z,7.06
2023-01-09T10:58:58.546Z,7.13
2023-01-09T10:59:58.461Z,7.16
2023-01-09T11:00:58.463Z,7.19
2023-01-09T11:01:58.487Z,7.26
2023-01-09T11:02:58.442Z,7.31
2023-01-09T11:03:58.452Z,7.39
2023-01-09T11:04:58.807Z,7.43
2023-01-09T11:05:58.444Z,7.39
2023-01-09T11:06:58.438Z,7.37
2023-01-09T11:07:58.412Z,7.34
2023-01-09T11:08:58.807Z,7.33
2023-01-09T11:09:58.372Z,7.26
2023-01-09T11:10:58.382Z,7.25
2023-01-09T11:11:58.418Z,7.24
2023-01-09T11:12:58.394Z,7.25
2023-01-09T11:13:58.334Z,7.29
2023-01-09T11:14:58.340Z,7.34
2023-01-09T11:15:58.322Z,7.42
2023-01-09T11:16:58.316Z,7.40
2023-01-09T11:17:58.293Z,7.37
2023-01-09T11:18:58.511Z,7.36
2023-01-09T11:19:58.261Z,7.39
2023-01-09T11:20:58.269Z,7.42
2023-01-09T11:21:58.268Z,7.44
2023-01-09T11:22:58.240Z,7.49
2023-01-09T11:23:58.239Z,7.46
2023-01-09T11:24:58.235Z,7.46
2023-01-09T11:25:58.191Z,7.50
2023-01-09T11:26:58.206Z,7.47
2023-01-09T11:27:58.169Z,7.49
2023-01-09T11:28:58.253Z,7.52
2023-01-09T11:29:58.176Z,7.50
2023-01-09T11:30:58.151Z,7.57
2023-01-09T11:31:58.187Z,7.54
2023-01-09T11:32:58.214Z,7.62
2023-01-09T11:33:58.119Z,7.64
2023-01-09T11:34:58.120Z,7.64
2023-01-09T11:35:58.161Z,7.60
2023-01-09T11:36:58.113Z,7.58
2023-01-09T11:37:58.225Z,7.55
2023-01-09T11:38:58.066Z,7.58
2023-01-09T11:39:58.067Z,7.58
2023-01-09T11:40:58.059Z,7.61
2023-01-09T11:41:58.018Z,7.66
2023-01-09T11:42:58.027Z,7.74
2023-01-09T11:43:58.026Z,7.78
2023-01-09T11:44:58.012Z,7.76
2023-01-09T11:46:01.642Z,7.78
2023-01-09T11:46:58.032Z,7.84
2023-01-09T11:47:57.964Z,7.80
2023-01-09T11:48:58.003Z,7.74
2023-01-09T11:49:57.950Z,7.66
2023-01-09T11:50:57.965Z,7.62
2023-01-09T11:51:57.970Z,7.61
2023-01-09T11:52:57.999Z,7.58
2023-01-09T11:53:58.004Z,7.57
2023-01-09T11:54:57.909Z,7.55
2023-01-09T11:55:57.932Z,7.55
2023-01-09T11:56:57.881Z,7.55
2023-01-09T11:57:57.842Z,7.50
2023-01-09T11:58:57.850Z,7.49
2023-01-09T11:59:57.855Z,7.49
2023-01-09T12:00:57.851Z,7.49
2023-01-09T12:01:57.921Z,7.46
2023-01-09T12:02:57.870Z,7.49
2023-01-09T12:03:57.817Z,7.49
2023-01-09T12:04:57.807Z,7.50
2023-01-09T12:05:57.793Z,7.54
2023-01-09T12:06:57.772Z,7.50
2023-01-09T12:07:57.757Z,7.49
2023-01-09T12:08:57.756Z,7.46
2023-01-09T12:09:57.729Z,7.46
2023-01-09T12:10:57.744Z,7.43
2023-01-09T12:11:57.695Z,7.36
2023-01-09T12:12:57.734Z,7.31
2023-01-09T12:13:57.691Z,7.31
2023-01-09T12:14:57.701Z,7.26
2023-01-09T12:15:57.737Z,7.24
2023-01-09T12:16:57.659Z,7.21
2023-01-09T12:17:57.658Z,7.19
2023-01-09T12:18:57.682Z,7.18
2023-01-09T12:19:57.620Z,7.19
2023-01-09T12:20:57.619Z,7.16
2023-01-09T12:21:57.594Z,7.19
2023-01-09T12:22:57.717Z,7.18
2023-01-09T12:23:57.583Z,7.18
2023-01-09T12:24:57.586Z,7.18
2023-01-09T12:25:57.548Z,7.15
2023-01-09T12:26:57.572Z,7.16
2023-01-09T12:27:57.569Z,7.18
2023-01-09T12:28:57.599Z,7.16
2023-01-09T12:29:57.521Z,7.18
2023-01-09T12:30:57.501Z,7.18
2023-01-09T12:31:57.504Z,7.19
2023-01-09T12:32:57.602Z,7.19
2023-01-09T12:33:57.458Z,7.24
2023-01-09T12:34:57.553Z,7.21
2023-01-09T12:35:57.443Z,7.22
2023-01-09T12:36:57.457Z,7.21
2023-01-09T12:37:57.452Z,7.22
2023-01-09T12:38:57.450Z,7.22
2023-01-09T12:39:57.479Z,7.25
2023-01-09T12:40:57.407Z,7.25
2023-01-09T12:41:57.438Z,7.25
2023-01-09T12:42:57.448Z,7.29
2023-01-09T12:43:57.353Z,7.39
2023-01-09T12:44:58.856Z,7.44
2023-01-09T12:45:57.512Z,7.47
2023-01-09T12:46:57.346Z,7.55
2023-01-09T12:47:57.321Z,7.57
2023-01-09T12:48:57.307Z,7.55
2023-01-09T12:49:57.298Z,7.58
2023-01-09T12:50:57.304Z,7.61
2023-01-09T12:51:57.311Z,7.61
2023-01-09T12:52:57.281Z,7.61
2023-01-09T12:53:57.262Z,7.61
2023-01-09T12:54:57.264Z,7.58
2023-01-09T12:55:57.265Z,7.58
2023-01-09T12:56:57.226Z,7.61
2023-01-09T12:57:57.240Z,7.60
2023-01-09T12:58:57.233Z,7.58
2023-01-09T12:59:57.203Z,7.61
2023-01-09T13:00:57.244Z,7.60
2023-01-09T13:01:57.187Z,7.61
2023-01-09T13:03:03.769Z,7.62
2023-01-09T13:03:57.186Z,7.60
2023-01-09T13:04:57.147Z,7.61
2023-01-09T13:05:57.251Z,7.61
2023-01-09T13:06:57.137Z,7.61
2023-01-09T13:07:57.142Z,7.64
2023-01-09T13:08:57.112Z,7.68
2023-01-09T13:09:57.103Z,7.66
2023-01-09T13:10:57.604Z,7.64
2023-01-09T13:11:57.072Z,7.60
2023-01-09T13:12:57.070Z,7.60
2023-01-09T13:13:57.089Z,7.58
2023-01-09T13:14:57.154Z,7.55
2023-01-09T13:15:57.119Z,7.54
2023-01-09T13:16:57.074Z,7.58
2023-01-09T13:17:57.010Z,7.61
2023-01-09T13:18:57.027Z,7.64
2023-01-09T13:19:57.026Z,7.69
2023-01-09T13:20:57.025Z,7.74
2023-01-09T13:21:56.990Z,7.81